createdAt,value
2022-09-10T00:01:32.352Z,5.30
2022-09-10T00:04:01.550Z,5.77
2022-09-10T00:06:33.039Z,5.10
2022-09-10T00:09:01.649Z,5.50
2022-09-10T00:11:32.366Z,6.07
2022-09-10T00:14:09.436Z,6.67
2022-09-10T00:16:36.338Z,6.63
2022-09-10T00:19:03.680Z,6.00
2022-09-10T00:21:30.822Z,6.07
2022-09-10T00:23:58.422Z,7.03
2022-09-10T00:26:28.206Z,7.73
2022-09-10T00:28:58.935Z,6.80
2022-09-10T00:31:26.487Z,7.73
2022-09-10T00:33:54.871Z,7.97
2022-09-10T00:36:25.578Z,8.57
2022-09-10T00:38:55.368Z,8.68
2022-09-10T00:41:24.855Z,8.40
2022-09-10T00:44:05.965Z,8.65
2022-09-10T00:46:48.657Z,8.03
2022-09-10T00:49:31.404Z,7.67
2022-09-10T00:51:59.152Z,7.83
2022-09-10T00:54:28.267Z,7.93
2022-09-10T00:57:00.334Z,8.03
2022-09-10T00:59:28.081Z,7.63
2022-09-10T01:01:56.025Z,8.40
2022-09-10T01:04:23.291Z,7.20
2022-09-10T01:06:53.289Z,7.20
2022-09-10T01:09:22.426Z,6.80
2022-09-10T01:12:08.069Z,6.33
2022-09-10T01:15:01.489Z,7.20
2022-09-10T01:17:46.960Z,6.70
2022-09-10T01:20:47.149Z,5.73
2022-09-10T01:23:19.435Z,6.60
2022-09-10T01:26:19.302Z,5.93
2022-09-10T01:29:10.804Z,5.90
2022-09-10T01:31:49.386Z,6.07
2022-09-10T01:34:29.773Z,6.00
2022-09-10T01:37:05.453Z,5.90
2022-09-10T01:39:34.126Z,6.23
2022-09-10T01:42:01.259Z,5.33
2022-09-10T01:44:48.315Z,6.13
2022-09-10T01:47:38.101Z,6.83
2022-09-10T01:50:46.207Z,5.87
2022-09-10T01:53:47.231Z,5.70
2022-09-10T01:57:10.838Z,5.43
2022-09-10T02:00:09.615Z,5.50
2022-09-10T02:03:01.950Z,5.17
2022-09-10T02:05:31.868Z,4.90
2022-09-10T02:08:20.222Z,5.50
2022-09-10T02:11:06.275Z,5.10
2022-09-10T02:13:34.638Z,5.13
2022-09-10T02:16:03.957Z,5.37
2022-09-10T02:18:35.424Z,5.30
2022-09-10T02:21:03.203Z,4.80
2022-09-10T02:24:05.844Z,5.30
2022-09-10T02:26:39.644Z,4.57
2022-09-10T02:29:07.265Z,5.10
2022-09-10T02:31:34.472Z,5.27
2022-09-10T02:34:03.320Z,4.83
2022-09-10T02:36:31.906Z,5.20
2022-09-10T02:39:00.419Z,5.43
2022-09-10T02:41:27.618Z,5.30
2022-09-10T02:43:55.463Z,5.43
2022-09-10T02:46:23.207Z,5.20
2022-09-10T02:48:50.252Z,5.87
2022-09-10T02:51:17.273Z,5.73
2022-09-10T02:53:44.445Z,5.60
2022-09-10T02:56:12.405Z,6.27
2022-09-10T02:58:39.502Z,6.00
2022-09-10T03:01:09.898Z,6.30
2022-09-10T03:03:37.556Z,6.23
2022-09-10T03:06:05.408Z,7.13
2022-09-10T03:08:32.662Z,6.27
2022-09-10T03:10:59.853Z,6.63
2022-09-10T03:13:28.639Z,6.93
2022-09-10T03:15:56.478Z,6.60
2022-09-10T03:18:23.537Z,6.77
2022-09-10T03:20:51.692Z,6.65
2022-09-10T03:23:18.962Z,6.93
2022-09-10T03:25:49.635Z,7.53
2022-09-10T03:28:16.914Z,7.45
2022-09-10T03:30:43.860Z,7.85
2022-09-10T03:33:11.831Z,7.40
2022-09-10T03:35:38.841Z,7.00
2022-09-10T03:38:05.890Z,8.50
2022-09-10T03:40:34.109Z,8.23
2022-09-10T03:43:01.231Z,7.37
2022-09-10T03:45:28.668Z,7.73
2022-09-10T03:47:55.613Z,8.33
2022-09-10T03:50:22.563Z,7.20
2022-09-10T03:52:50.109Z,9.07
2022-09-10T03:55:17.956Z,8.67
2022-09-10T03:57:45.720Z,8.47
2022-09-10T04:00:12.952Z,8.70
2022-09-10T04:02:41.675Z,8.73
2022-09-10T04:05:09.947Z,9.43
2022-09-10T04:07:36.898Z,10.10
2022-09-10T04:10:04.528Z,10.83
2022-09-10T04:12:31.445Z,10.27
2022-09-10T04:14:58.367Z,11.47
2022-09-10T04:17:25.400Z,10.80
2022-09-10T04:19:52.433Z,11.53
2022-09-10T04:22:19.339Z,10.07
2022-09-10T04:24:46.216Z,10.10
2022-09-10T04:27:13.797Z,12.03
2022-09-10T04:29:40.994Z,12.73
2022-09-10T04:32:07.969Z,12.63
2022-09-10T04:34:34.948Z,15.43
2022-09-10T04:37:01.851Z,17.07
2022-09-10T04:39:28.736Z,17.50
2022-09-10T04:41:55.585Z,17.23
2022-09-10T04:44:22.505Z,17.20
2022-09-10T04:46:49.379Z,16.20
2022-09-10T04:49:16.253Z,14.52
2022-09-10T04:51:43.172Z,13.70
2022-09-10T04:54:14.360Z,13.50
2022-09-10T04:56:41.566Z,15.40
2022-09-10T04:59:08.446Z,17.13
2022-09-10T05:01:35.329Z,17.73
2022-09-10T05:04:03.529Z,19.90
2022-09-10T05:06:30.407Z,20.20
2022-09-10T05:08:57.428Z,20.17
2022-09-10T05:11:25.372Z,20.47
2022-09-10T05:13:52.247Z,21.20
2022-09-10T05:16:19.147Z,22.10
2022-09-10T05:18:46.080Z,20.97
2022-09-10T05:21:12.998Z,16.53
2022-09-10T05:23:40.160Z,17.10
2022-09-10T05:26:07.129Z,17.00
2022-09-10T05:28:34.061Z,17.37
2022-09-10T05:31:01.115Z,16.90
2022-09-10T05:33:28.113Z,18.77
2022-09-10T05:35:54.989Z,21.43
2022-09-10T05:38:24.003Z,21.37
2022-09-10T05:40:50.942Z,21.23
2022-09-10T05:43:17.976Z,22.20
2022-09-10T05:45:44.889Z,22.03
2022-09-10T05:48:11.966Z,20.07
2022-09-10T05:50:39.015Z,18.83
2022-09-10T05:53:06.343Z,20.67
2022-09-10T05:55:33.371Z,21.60
2022-09-10T05:58:00.345Z,21.97
2022-09-10T06:00:27.309Z,21.40
2022-09-10T06:02:54.433Z,21.03
2022-09-10T06:05:23.220Z,20.40
2022-09-10T06:07:50.667Z,21.77
2022-09-10T06:10:17.598Z,22.13
2022-09-10T06:12:49.702Z,19.42
2022-09-10T06:15:16.672Z,18.10
2022-09-10T06:17:43.639Z,19.48
2022-09-10T06:20:12.694Z,19.50
2022-09-10T06:22:42.635Z,18.70
2022-09-10T06:25:09.761Z,19.93
2022-09-10T06:27:36.634Z,20.70
2022-09-10T06:30:04.128Z,21.60
2022-09-10T06:32:32.319Z,22.88
2022-09-10T06:34:59.208Z,23.45
2022-09-10T06:37:27.007Z,23.50
2022-09-10T06:39:53.927Z,23.77
2022-09-10T06:42:20.833Z,21.47
2022-09-10T06:44:47.744Z,21.87
2022-09-10T06:50:01.562Z,22.90
2022-09-10T06:52:31.475Z,21.95
2022-09-10T06:54:59.250Z,23.05
2022-09-10T06:57:26.551Z,23.05
2022-09-10T06:59:53.453Z,23.05
2022-09-10T07:02:20.527Z,22.65
2022-09-10T07:04:47.434Z,22.83
2022-09-10T07:07:15.076Z,21.65
2022-09-10T07:09:42.061Z,22.00
2022-09-10T07:12:09.466Z,22.02
2022-09-10T07:14:36.356Z,22.40
2022-09-10T07:17:03.289Z,21.75
2022-09-10T07:19:30.975Z,23.08
2022-09-10T07:21:57.953Z,23.75
2022-09-10T07:24:24.852Z,21.75
2022-09-10T07:26:51.743Z,20.23
2022-09-10T07:29:18.611Z,20.05
2022-09-10T07:31:47.291Z,20.15
2022-09-10T07:34:14.268Z,19.70
2022-09-10T07:36:41.141Z,20.73
2022-09-10T07:39:09.169Z,21.00
2022-09-10T07:41:36.318Z,19.70
2022-09-10T07:44:03.722Z,20.15
2022-09-10T07:46:30.619Z,19.65
2022-09-10T07:49:01.055Z,20.58
2022-09-10T07:51:32.422Z,20.92
2022-09-10T07:53:59.816Z,20.52
2022-09-10T07:56:27.254Z,19.40
2022-09-10T07:58:57.423Z,21.48
2022-09-10T08:01:24.712Z,21.48
2022-09-10T08:03:51.720Z,18.90
2022-09-10T08:06:19.599Z,19.08
2022-09-10T08:08:46.479Z,19.85
2022-09-10T08:11:17.447Z,19.50
2022-09-10T08:13:48.036Z,19.60
2022-09-10T08:16:19.280Z,19.77
2022-09-10T08:18:47.922Z,20.92
2022-09-10T08:21:16.324Z,22.15
2022-09-10T08:23:48.767Z,21.52
2022-09-10T08:26:15.712Z,21.40
2022-09-10T08:28:44.268Z,20.05
2022-09-10T08:31:12.793Z,20.40
2022-09-10T08:33:40.710Z,19.55
2022-09-10T08:36:11.977Z,20.00
2022-09-10T08:38:40.555Z,18.63
2022-09-10T08:41:43.884Z,18.60
2022-09-10T08:44:42.758Z,18.70
2022-09-10T08:47:33.357Z,17.48
2022-09-10T08:50:13.224Z,16.88
2022-09-10T08:52:50.593Z,15.98
2022-09-10T08:55:17.393Z,15.82
2022-09-10T08:58:00.049Z,14.07
2022-09-10T09:00:34.143Z,14.75
2022-09-10T09:03:31.851Z,15.05
2022-09-10T09:06:02.677Z,15.32
2022-09-10T09:08:44.230Z,13.60
2022-09-10T09:11:45.166Z,14.38
2022-09-10T09:14:49.251Z,14.80
2022-09-10T09:17:49.354Z,13.38
2022-09-10T09:20:41.512Z,14.13
2022-09-10T09:23:30.094Z,14.10
2022-09-10T09:26:04.791Z,12.63
2022-09-10T09:28:43.493Z,10.68
2022-09-10T09:31:31.452Z,10.23
2022-09-10T09:34:19.247Z,9.25
2022-09-10T09:36:55.305Z,9.25
2022-09-10T09:39:42.023Z,7.85
2022-09-10T09:42:24.686Z,8.07
2022-09-10T09:45:21.077Z,7.03
2022-09-10T09:47:50.205Z,7.78
2022-09-10T09:50:20.589Z,7.82
2022-09-10T09:52:54.229Z,6.78
2022-09-10T09:55:24.886Z,6.53
2022-09-10T09:58:33.495Z,6.75
2022-09-10T10:01:07.138Z,6.85
2022-09-10T10:03:48.796Z,8.23
2022-09-10T10:06:17.288Z,8.95
2022-09-10T10:08:53.058Z,9.27
2022-09-10T10:11:22.248Z,9.88
2022-09-10T10:13:51.651Z,10.45
2022-09-10T10:16:28.483Z,10.13
2022-09-10T10:18:55.349Z,10.38
2022-09-10T10:21:31.986Z,9.65
2022-09-10T10:23:59.239Z,10.00
2022-09-10T10:26:35.135Z,9.88
2022-09-10T10:29:17.355Z,9.88
2022-09-10T10:31:47.370Z,13.27
2022-09-10T10:34:16.888Z,15.30
2022-09-10T10:37:00.742Z,14.80
2022-09-10T10:39:57.082Z,14.70
2022-09-10T10:42:35.758Z,12.63
2022-09-10T10:45:20.848Z,11.57
2022-09-10T10:48:04.613Z,11.18
2022-09-10T10:50:44.483Z,9.55
2022-09-10T10:53:47.097Z,8.82
2022-09-10T10:57:00.095Z,8.88
2022-09-10T10:59:44.974Z,4.30
2022-09-10T11:02:54.510Z,3.97
2022-09-10T11:05:41.510Z,4.25
2022-09-10T11:08:15.090Z,4.30
2022-09-10T11:11:09.039Z,4.40
2022-09-10T11:13:57.657Z,4.00
2022-09-10T11:16:41.649Z,4.07
2022-09-10T11:19:35.583Z,4.13
2022-09-10T11:22:14.027Z,3.70
2022-09-10T11:25:03.021Z,3.42
2022-09-10T11:27:43.348Z,2.97
2022-09-10T11:30:16.263Z,3.10
2022-09-10T11:33:15.222Z,3.15
2022-09-10T11:36:00.049Z,3.38
2022-09-10T11:38:36.870Z,3.83
2022-09-10T11:41:09.506Z,3.33
2022-09-10T11:44:30.091Z,3.60
2022-09-10T11:47:11.657Z,3.08
2022-09-10T11:50:07.412Z,3.15
2022-09-10T11:52:35.280Z,2.92
2022-09-10T11:55:04.731Z,2.90
2022-09-10T11:57:59.616Z,2.50
2022-09-10T12:00:30.194Z,2.80
2022-09-10T12:02:59.926Z,3.28
2022-09-10T12:05:49.146Z,2.90
2022-09-10T12:08:49.744Z,3.53
2022-09-10T12:11:41.630Z,4.00
2022-09-10T12:14:17.057Z,4.03
2022-09-10T12:16:55.331Z,3.05
2022-09-10T12:19:56.299Z,2.30
2022-09-10T12:22:40.274Z,2.47
2022-09-10T12:25:24.803Z,2.55
2022-09-10T12:27:56.166Z,2.88
2022-09-10T12:30:29.265Z,2.40
2022-09-10T12:33:00.481Z,2.58
2022-09-10T12:35:34.280Z,2.72
2022-09-10T12:38:44.382Z,2.40
2022-09-10T12:41:31.453Z,2.60
2022-09-10T12:44:00.610Z,2.35
2022-09-10T12:46:28.941Z,2.63
2022-09-10T12:48:56.019Z,2.17
2022-09-10T12:51:58.344Z,2.53
2022-09-10T12:54:53.965Z,2.58
2022-09-10T12:58:02.605Z,2.22
2022-09-10T13:00:53.849Z,2.55
2022-09-10T13:03:24.571Z,2.65
2022-09-10T13:05:58.208Z,2.42
2022-09-10T13:08:43.414Z,2.28
2022-09-10T13:11:21.607Z,2.50
2022-09-10T13:13:56.404Z,2.72
2022-09-10T13:16:26.485Z,2.97
2022-09-10T13:19:22.666Z,2.90
2022-09-10T13:21:51.583Z,2.40
2022-09-10T13:24:34.257Z,2.50
2022-09-10T13:27:21.559Z,2.83
2022-09-10T13:30:10.748Z,2.67
2022-09-10T13:32:44.323Z,2.90
2022-09-10T13:35:38.539Z,2.55
2022-09-10T13:39:00.932Z,2.75
2022-09-10T13:41:50.628Z,2.95
2022-09-10T13:44:48.471Z,3.25
2022-09-10T13:47:34.298Z,3.25
2022-09-10T13:50:14.144Z,3.35
2022-09-10T13:52:45.614Z,3.33
2022-09-10T13:55:24.863Z,3.10
2022-09-10T13:57:56.530Z,3.47
2022-09-10T14:00:28.356Z,3.70
2022-09-10T14:03:00.757Z,3.97
2022-09-10T14:05:47.035Z,4.32
2022-09-10T14:08:22.668Z,4.80
2022-09-10T14:11:17.643Z,4.80
2022-09-10T14:14:04.246Z,5.30
2022-09-10T14:16:44.337Z,5.45
2022-09-10T14:19:23.865Z,6.22
2022-09-10T14:21:51.786Z,5.60
2022-09-10T14:24:53.560Z,6.40
2022-09-10T14:27:41.329Z,6.32
2022-09-10T14:30:23.124Z,7.13
2022-09-10T14:32:51.866Z,7.35
2022-09-10T14:35:38.242Z,6.68
2022-09-10T14:38:25.409Z,6.47
2022-09-10T14:41:10.945Z,6.90
2022-09-10T14:43:40.476Z,6.93
2022-09-10T14:46:10.333Z,7.10
2022-09-10T14:49:04.649Z,7.47
2022-09-10T14:51:31.535Z,7.25
2022-09-10T14:53:59.139Z,7.53
2022-09-10T14:56:33.531Z,7.63
2022-09-10T14:59:18.613Z,7.57
2022-09-10T15:01:48.424Z,7.40
2022-09-10T15:04:18.484Z,7.95
2022-09-10T15:06:45.511Z,7.40
2022-09-10T15:09:14.066Z,7.22
2022-09-10T15:12:05.849Z,7.22
2022-09-10T15:14:33.962Z,6.45
2022-09-10T15:17:01.138Z,5.80
2022-09-10T15:19:28.369Z,5.70
2022-09-10T15:21:56.381Z,6.18
2022-09-10T15:24:24.665Z,5.45
2022-09-10T15:26:51.684Z,6.13
2022-09-10T15:29:18.542Z,5.78
2022-09-10T15:31:45.596Z,5.07
2022-09-10T15:34:12.968Z,6.35
2022-09-10T15:36:41.499Z,5.55
2022-09-10T15:39:13.559Z,5.05
2022-09-10T15:41:44.751Z,4.78
2022-09-10T15:44:12.109Z,4.85
2022-09-10T15:46:45.545Z,5.03
2022-09-10T15:49:12.945Z,5.20
2022-09-10T15:51:41.321Z,5.22
2022-09-10T15:54:13.440Z,5.20
2022-09-10T15:56:40.435Z,4.88
2022-09-10T15:59:08.780Z,4.63
2022-09-10T16:01:38.400Z,4.45
2022-09-10T16:04:06.107Z,4.70
2022-09-10T16:06:36.788Z,3.88
2022-09-10T16:09:09.282Z,3.63
2022-09-10T16:11:38.619Z,4.15
2022-09-10T16:14:08.260Z,3.90
2022-09-10T16:16:37.132Z,3.53
2022-09-10T16:19:05.825Z,3.53
2022-09-10T16:21:36.553Z,3.78
2022-09-10T16:24:05.698Z,4.05
2022-09-10T16:26:39.923Z,3.80
2022-09-10T16:29:14.097Z,4.22
2022-09-10T16:31:41.672Z,4.05
2022-09-10T16:34:16.056Z,4.80
2022-09-10T16:36:43.837Z,4.53
2022-09-10T16:39:15.589Z,4.00
2022-09-10T16:41:45.289Z,4.40
2022-09-10T16:44:14.774Z,4.13
2022-09-10T16:46:42.573Z,4.47
2022-09-10T16:49:14.348Z,4.00
2022-09-10T16:51:46.871Z,3.88
2022-09-10T16:54:15.876Z,4.13
2022-09-10T16:56:45.755Z,4.50
2022-09-10T16:59:19.689Z,4.60
2022-09-10T17:01:48.427Z,4.78
2022-09-10T17:04:26.065Z,4.38
2022-09-10T17:06:56.125Z,4.40
2022-09-10T17:09:23.088Z,4.57
2022-09-10T17:11:51.098Z,5.22
2022-09-10T17:14:17.974Z,4.78
2022-09-10T17:16:44.922Z,4.85
2022-09-10T17:19:17.563Z,5.00
2022-09-10T17:21:48.887Z,5.18
2022-09-10T17:24:15.770Z,4.50
2022-09-10T17:26:42.736Z,4.63
2022-09-10T17:29:22.556Z,4.75
2022-09-10T17:31:52.165Z,5.88
2022-09-10T17:34:24.393Z,5.30
2022-09-10T17:36:52.310Z,5.88
2022-09-10T17:39:19.551Z,5.68
2022-09-10T17:41:46.661Z,5.55
2022-09-10T17:44:14.580Z,6.05
2022-09-10T17:46:42.755Z,6.15
2022-09-10T17:49:13.074Z,6.07
2022-09-10T17:51:40.243Z,7.30
2022-09-10T17:54:08.346Z,7.25
2022-09-10T17:56:36.609Z,6.53
2022-09-10T17:59:05.168Z,6.65
2022-09-10T18:01:38.832Z,6.50
2022-09-10T18:04:15.741Z,6.60
2022-09-10T18:06:43.767Z,6.88
2022-09-10T18:09:11.498Z,7.25
2022-09-10T18:11:40.750Z,7.10
2022-09-10T18:14:08.933Z,6.90
2022-09-10T18:16:38.079Z,6.57
2022-09-10T18:19:14.430Z,7.57
2022-09-10T18:21:43.971Z,7.30
2022-09-10T18:24:14.559Z,7.88
2022-09-10T18:26:45.120Z,8.25
2022-09-10T18:29:25.287Z,8.70
2022-09-10T18:31:56.482Z,7.47
2022-09-10T18:34:27.735Z,8.52
2022-09-10T18:37:00.998Z,8.50
2022-09-10T18:39:30.903Z,7.72
2022-09-10T18:42:00.718Z,9.00
2022-09-10T18:44:36.402Z,9.07
2022-09-10T18:47:17.894Z,9.52
2022-09-10T18:49:53.493Z,9.93
2022-09-10T18:52:20.979Z,9.45
2022-09-10T18:54:48.218Z,10.52
2022-09-10T18:57:15.098Z,9.30
2022-09-10T18:59:42.034Z,9.38
2022-09-10T19:02:13.109Z,9.95
2022-09-10T19:05:00.401Z,9.75
2022-09-10T19:07:27.262Z,10.93
2022-09-10T19:09:54.251Z,9.63
2022-09-10T19:12:21.129Z,10.43
2022-09-10T19:14:47.978Z,9.75
2022-09-10T19:17:15.835Z,10.40
2022-09-10T19:19:42.760Z,10.73
2022-09-10T19:22:10.622Z,10.07
2022-09-10T19:24:54.460Z,10.13
2022-09-10T19:27:22.964Z,9.60
2022-09-10T19:29:50.238Z,9.45
2022-09-10T19:32:19.754Z,9.70
2022-09-10T19:34:50.510Z,10.00
2022-09-10T19:37:17.629Z,10.45
2022-09-10T19:39:44.745Z,10.25
2022-09-10T19:42:12.623Z,10.18
2022-09-10T19:44:39.640Z,10.70
2022-09-10T19:47:06.532Z,10.90
2022-09-10T19:49:34.262Z,11.55
2022-09-10T19:52:01.627Z,10.55
2022-09-10T19:54:29.819Z,10.45
2022-09-10T19:56:56.740Z,10.02
2022-09-10T19:59:23.789Z,10.68
2022-09-10T20:01:51.012Z,10.82
2022-09-10T20:04:18.032Z,10.00
2022-09-10T20:06:46.163Z,11.20
2022-09-10T20:09:13.662Z,10.52
2022-09-10T20:11:41.087Z,9.73
2022-09-10T20:14:13.731Z,10.63
2022-09-10T20:16:44.048Z,11.77
2022-09-10T20:19:14.891Z,11.65
2022-09-10T20:21:42.289Z,11.77
2022-09-10T20:24:10.179Z,11.27
2022-09-10T20:26:40.954Z,11.55
2022-09-10T20:29:12.572Z,11.45
2022-09-10T20:31:41.468Z,11.13
2022-09-10T20:34:12.653Z,11.82
2022-09-10T20:36:42.402Z,11.85
2022-09-10T20:39:13.590Z,12.38
2022-09-10T20:41:40.661Z,11.90
2022-09-10T20:44:08.447Z,11.80
2022-09-10T20:46:35.370Z,12.23
2022-09-10T20:49:05.589Z,12.48
2022-09-10T20:51:35.867Z,12.00
2022-09-10T20:54:04.497Z,11.50
2022-09-10T20:56:32.111Z,11.68
2022-09-10T20:58:59.829Z,12.40
2022-09-10T21:01:29.174Z,11.63
2022-09-10T21:03:59.446Z,12.00
2022-09-10T21:06:29.292Z,11.52
2022-09-10T21:08:56.273Z,12.45
2022-09-10T21:11:25.928Z,11.80
2022-09-10T21:13:55.762Z,13.38
2022-09-10T21:16:23.359Z,12.40
2022-09-10T21:18:58.780Z,12.23
2022-09-10T21:21:30.562Z,12.07
2022-09-10T21:24:04.728Z,12.38
2022-09-10T21:26:38.709Z,12.27
2022-09-10T21:29:10.983Z,12.13
2022-09-10T21:31:38.258Z,12.32
2022-09-10T21:34:06.091Z,12.07
2022-09-10T21:36:35.339Z,12.98
2022-09-10T21:39:06.256Z,13.20
2022-09-10T21:41:40.240Z,14.07
2022-09-10T21:44:17.365Z,14.00
2022-09-10T21:46:45.806Z,14.25
2022-09-10T21:49:13.626Z,15.05
2022-09-10T21:51:41.657Z,14.27
2022-09-10T21:54:18.619Z,15.00
2022-09-10T21:56:45.797Z,15.13
2022-09-10T21:59:14.611Z,12.95
2022-09-10T22:01:44.098Z,13.73
2022-09-10T22:04:12.647Z,14.68
2022-09-10T22:06:40.239Z,14.55
2022-09-10T22:09:15.273Z,13.48
2022-09-10T22:11:46.946Z,14.23
2022-09-10T22:14:21.366Z,14.65
2022-09-10T22:16:49.274Z,14.07
2022-09-10T22:19:27.350Z,15.05
2022-09-10T22:21:56.014Z,15.05
2022-09-10T22:24:23.209Z,15.90
2022-09-10T22:26:50.455Z,16.67
2022-09-10T22:29:19.567Z,16.02
2022-09-10T22:31:47.030Z,15.18
2022-09-10T22:34:16.463Z,15.95
2022-09-10T22:36:45.849Z,15.70
2022-09-10T22:39:18.545Z,16.95
2022-09-10T22:41:47.205Z,16.40
2022-09-10T22:44:14.412Z,16.83
2022-09-10T22:46:41.749Z,16.75
2022-09-10T22:49:10.106Z,16.48
2022-09-10T22:51:41.026Z,15.05
2022-09-10T22:54:10.812Z,15.55
2022-09-10T22:56:38.253Z,16.58
2022-09-10T22:59:06.558Z,18.67
2022-09-10T23:01:38.564Z,18.38
2022-09-10T23:04:07.882Z,18.35
2022-09-10T23:06:37.890Z,17.10
2022-09-10T23:09:10.468Z,18.23
2022-09-10T23:11:38.889Z,17.88
2022-09-10T23:14:10.748Z,19.80
2022-09-10T23:16:43.702Z,19.25
2022-09-10T23:19:17.510Z,19.48
2022-09-10T23:21:47.993Z,17.80
2022-09-10T23:24:18.121Z,19.58
2022-09-10T23:26:45.917Z,19.17
2022-09-10T23:29:16.827Z,18.85
2022-09-10T23:31:45.992Z,18.73
2022-09-10T23:34:18.524Z,19.23
2022-09-10T23:36:48.240Z,19.98
2022-09-10T23:39:24.029Z,19.13
2022-09-10T23:41:53.965Z,19.38
2022-09-10T23:44:21.056Z,17.92
2022-09-10T23:46:48.161Z,18.67
2022-09-10T23:49:15.313Z,18.88
2022-09-10T23:51:42.670Z,19.08
2022-09-10T23:54:12.553Z,18.98
2022-09-10T23:56:40.234Z,19.42
2022-09-10T23:59:07.741Z,19.33
